Cotton Gin, Texas
Current Conditions -  °F | °C
As of 1:15 AM on Thursday 23 Oct 2014 (Local Time) from KLXY Reporting Station
Clear Clear  
Wind Chill: 64°   Ceiling: Unl
Heat Index: 64°   Visibility: 10mi
Dew Point: 56°   Wind: 7mph
Humidity: 73%   Direction: 100°E
Pressure: 30.09"   Gusts: NA
Location:  31.6463°N, 96.2786°W
Report Text: KLXY 230615Z AUTO 10006KT 10SM CLR 18/13 A3009 RMK AO2 T01800131
Loading
Personal Weather Stations






























Interactive Weather Map
Tropical Storm Tracking
New forecast layout! Learn more

10-Day Weather Forecast

Advertisements
Track Severe Weather on mobile